Pauma Valley, California
Current Conditions -  °F | °C
As of 2:35 PM on Sunday 23 Nov 2014 (Local Time) from KL18 Reporting Station
Clear Clear  
Wind Chill: 25°   Ceiling: Unl
Heat Index: 25°   Visibility: 10mi
Dew Point: -10°   Wind: 8mph
Humidity: 9%   Direction: 360°N
Pressure: 30.05"   Gusts: 17mph
Location:  33.3°N, 116.98°W
Report Text: KL18 232235Z AUTO 36007G15KT 10SM CLR 25/M10 A3005 RMK AO2
Loading
Personal Weather Stations






























Interactive Weather Map New forecast layout! Learn more

10-Day Weather Forecast

Advertisements
Track Severe Weather on mobile